Time;durP1;ratioP1;P1;durP2;ratioP2;P2;SDS_P1;SDS_P2;PMS_P1;PMS_P2;Temp;Humidity;BMP_temperature;BMP_pressure;BME280_temperature;BME280_humidity;BME280_pressure;Samples;Min_cycle;Max_cycle;Signal;HPM_P1;HPM_P2
2021/09/08 00:00:35;;;;;;;15.48;8.43;;;;;;;13.87;91.77;99116.25;5034916;28;20026;-75
2021/09/08 00:03:00;;;;;;;11.65;7.82;;;;;;;13.90;91.97;99118.53;5034361;28;20501;-75
2021/09/08 00:05:26;;;;;;;11.27;7.68;;;;;;;13.70;91.69;99107.75;5042930;28;20024;-75
2021/09/08 00:07:51;;;;;;;10.80;7.53;;;;;;;13.75;92.41;99125.09;5019145;28;20542;-78
2021/09/08 00:10:17;;;;;;;11.32;7.57;;;;;;;13.72;92.74;99111.09;5035022;28;20402;-75
2021/09/08 00:12:43;;;;;;;14.48;8.07;;;;;;;13.63;92.92;99115.94;5034907;28;20028;-75
2021/09/08 00:15:10;;;;;;;13.57;8.15;;;;;;;13.68;92.62;99123.47;5017030;28;20117;-75
2021/09/08 00:17:36;;;;;;;14.07;8.05;;;;;;;13.61;93.20;99112.59;5035869;28;20029;-75
2021/09/08 00:20:03;;;;;;;12.15;8.20;;;;;;;13.69;93.05;99122.41;5034941;28;20029;-75
2021/09/08 00:22:28;;;;;;;15.93;8.27;;;;;;;13.63;93.07;99115.13;5034501;28;20076;-75
2021/09/08 00:24:53;;;;;;;11.63;7.85;;;;;;;13.67;92.97;99116.34;5037144;28;20045;-75
2021/09/08 00:27:19;;;;;;;12.02;8.40;;;;;;;13.69;92.34;99125.13;5024267;28;20026;-74
2021/09/08 00:29:44;;;;;;;10.95;7.85;;;;;;;13.61;93.25;99112.59;5034554;28;20025;-75
2021/09/08 00:32:09;;;;;;;13.18;8.15;;;;;;;13.56;92.92;99112.41;5034411;28;20108;-75
2021/09/08 00:34:35;;;;;;;14.15;8.10;;;;;;;13.47;93.53;99105.56;5034206;28;20033;-75
2021/09/08 00:37:00;;;;;;;14.07;8.45;;;;;;;13.33;94.56;99094.72;5033918;28;20029;-75
2021/09/08 00:39:25;;;;;;;12.65;8.70;;;;;;;13.30;94.87;99095.13;5034161;28;20398;-75
2021/09/08 00:41:51;;;;;;;13.70;9.10;;;;;;;13.27;95.08;99095.56;5033590;28;20029;-75
2021/09/08 00:44:16;;;;;;;16.40;9.02;;;;;;;13.20;95.47;99083.03;5034212;28;20124;-75
2021/09/08 00:46:44;;;;;;;11.20;8.27;;;;;;;13.23;95.43;99086.16;5016479;28;20021;-74
2021/09/08 00:49:10;;;;;;;14.05;8.48;;;;;;;13.33;95.15;99102.84;5034016;28;20033;-74
2021/09/08 00:51:37;;;;;;;15.00;8.23;;;;;;;13.32;95.43;99098.47;5034369;28;20061;-75
2021/09/08 00:54:05;;;;;;;11.20;8.82;;;;;;;13.34;95.15;99090.13;5033928;28;20021;-74
2021/09/08 00:56:30;;;;;;;13.43;8.48;;;;;;;13.28;95.24;99083.69;5005081;28;20041;-75
2021/09/08 00:58:57;;;;;;;12.05;8.68;;;;;;;13.42;94.25;99091.78;5033206;28;20021;-75
2021/09/08 01:01:22;;;;;;;14.05;8.05;;;;;;;13.26;92.09;99093.06;5034064;28;20029;-75
2021/09/08 01:03:48;;;;;;;13.52;8.95;;;;;;;13.23;94.26;99099.75;5033959;28;20029;-75
2021/09/08 01:06:14;;;;;;;12.82;8.07;;;;;;;13.30;94.75;99084.28;5025847;28;20545;-75
2021/09/08 01:08:39;;;;;;;13.02;8.55;;;;;;;13.26;94.05;99093.06;5032937;28;20395;-75
2021/09/08 01:11:06;;;;;;;12.32;8.55;;;;;;;13.08;95.05;99080.97;5033795;28;20083;-74
2021/09/08 01:13:34;;;;;;;11.98;8.30;;;;;;;13.08;95.93;99091.00;5045186;28;20029;-74
2021/09/08 01:16:01;;;;;;;13.20;9.07;;;;;;;13.07;95.83;99073.03;5053681;28;20040;-75
2021/09/08 01:18:28;;;;;;;12.38;7.57;;;;;;;13.03;94.87;99066.38;5043558;28;20022;-75
2021/09/08 01:20:53;;;;;;;14.20;8.40;;;;;;;13.09;95.84;99081.81;5045281;28;20052;-74
2021/09/08 01:23:18;;;;;;;11.20;7.97;;;;;;;13.06;95.34;99082.22;5050570;28;20438;-74
2021/09/08 01:25:44;;;;;;;12.43;8.23;;;;;;;13.06;95.26;99083.06;5042349;28;20439;-74
2021/09/08 01:28:09;;;;;;;15.00;8.80;;;;;;;12.93;95.59;99072.22;5037587;28;20036;-75
2021/09/08 01:30:35;;;;;;;12.80;8.15;;;;;;;12.97;95.51;99081.63;5035508;28;20021;-74
2021/09/08 01:33:01;;;;;;;14.98;9.10;;;;;;;12.94;96.18;99085.59;5035879;28;20109;-74
2021/09/08 01:35:27;;;;;;;13.23;8.30;;;;;;;12.90;95.62;99078.91;5048546;28;20025;-74
2021/09/08 01:37:52;;;;;;;13.68;7.72;;;;;;;12.87;95.71;99083.94;5032963;28;20034;-74
2021/09/08 01:40:18;;;;;;;12.30;8.25;;;;;;;12.81;96.35;99073.91;5033266;28;20242;-74
2021/09/08 01:42:45;;;;;;;12.50;8.38;;;;;;;12.71;96.43;99060.78;5033153;28;20075;-74
2021/09/08 01:45:13;;;;;;;13.45;9.25;;;;;;;12.78;97.45;99075.16;5032179;28;20360;-74
2021/09/08 01:47:39;;;;;;;12.55;7.90;;;;;;;12.61;97.65;99053.06;5032947;28;20029;-75
2021/09/08 01:50:06;;;;;;;18.48;9.23;;;;;;;12.52;98.51;99039.91;5032854;28;20029;-74
2021/09/08 01:52:32;;;;;;;16.02;9.68;;;;;;;12.66;99.05;99064.13;5045161;28;20475;-74
2021/09/08 01:54:57;;;;;;;12.10;8.93;;;;;;;12.68;99.20;99061.19;5021011;28;20109;-74
2021/09/08 01:57:22;;;;;;;14.95;9.55;;;;;;;12.70;98.94;99061.81;5030796;28;20038;-74
2021/09/08 01:59:47;;;;;;;16.15;9.63;;;;;;;12.75;98.81;99062.00;5033569;28;20432;-74
2021/09/08 02:02:13;;;;;;;14.57;9.07;;;;;;;12.63;98.85;99055.59;5043991;28;20469;-74
2021/09/08 02:04:38;;;;;;;14.73;9.30;;;;;;;12.65;99.02;99053.47;5028306;28;20100;-74
2021/09/08 02:07:04;;;;;;;15.73;9.52;;;;;;;12.56;98.38;99050.13;5032729;28;20479;-74
2021/09/08 02:09:30;;;;;;;11.70;8.30;;;;;;;12.73;97.82;99058.66;5032866;28;20029;-74
2021/09/08 02:11:55;;;;;;;12.40;8.00;;;;;;;12.60;95.55;99048.69;5032725;28;20056;-73
2021/09/08 02:14:21;;;;;;;14.55;8.63;;;;;;;12.57;95.80;99057.22;5032017;28;20032;-73
2021/09/08 02:16:46;;;;;;;11.52;7.97;;;;;;;12.41;96.39;99057.66;5013598;28;20380;-74
2021/09/08 02:19:11;;;;;;;10.65;8.05;;;;;;;12.42;96.94;99062.91;5032515;28;20079;-74
2021/09/08 02:21:37;;;;;;;14.35;8.38;;;;;;;12.29;96.98;99049.31;5032962;28;20029;-74
2021/09/08 02:24:02;;;;;;;11.73;8.55;;;;;;;12.24;97.21;99047.22;5033371;28;20479;-73
2021/09/08 02:26:27;;;;;;;12.73;8.25;;;;;;;12.20;96.54;99047.84;5037938;28;20029;-74
2021/09/08 02:28:53;;;;;;;12.15;8.30;;;;;;;12.28;96.75;99053.91;5038992;28;20029;-73
2021/09/08 02:31:18;;;;;;;13.80;7.72;;;;;;;12.31;97.00;99052.63;5039312;28;20429;-74
2021/09/08 02:33:43;;;;;;;10.95;7.50;;;;;;;12.17;96.37;99051.81;5017689;28;20081;-74
2021/09/08 02:36:09;;;;;;;16.35;8.07;;;;;;;12.29;95.63;99054.75;5025714;28;20551;-74
2021/09/08 02:38:34;;;;;;;12.15;7.72;;;;;;;12.07;94.92;99045.97;5052718;28;20025;-73
2021/09/08 02:41:06;;;;;;;12.43;7.82;;;;;;;12.06;95.17;99055.97;5020066;28;20394;-74
2021/09/08 02:43:33;;;;;;;18.45;8.02;;;;;;;12.09;96.99;99043.06;5032404;28;20105;-74
2021/09/08 02:46:01;;;;;;;9.30;6.93;;;;;;;12.07;97.11;99060.34;5033332;28;20017;-74
2021/09/08 02:48:27;;;;;;;12.55;8.48;;;;;;;11.97;97.55;99045.53;5033320;28;20053;-74
2021/09/08 02:50:52;;;;;;;13.82;9.27;;;;;;;12.01;98.25;99046.78;5032340;28;20096;-74
2021/09/08 02:53:17;;;;;;;11.43;8.30;;;;;;;11.94;98.56;99044.06;5014322;28;20025;-74
2021/09/08 02:55:43;;;;;;;14.25;9.13;;;;;;;11.93;99.15;99044.28;5014167;28;20067;-73
2021/09/08 02:58:08;;;;;;;15.75;8.38;;;;;;;11.97;99.22;99042.81;5031968;28;20037;-74
2021/09/08 03:00:33;;;;;;;11.75;7.95;;;;;;;11.99;97.95;99043.44;5032025;28;20021;-73
2021/09/08 03:02:58;;;;;;;15.52;9.30;;;;;;;12.00;99.45;99037.81;5031720;28;20029;-74
2021/09/08 03:05:24;;;;;;;15.23;9.70;;;;;;;11.96;100.00;99039.28;5031582;28;20017;-74
2021/09/08 03:07:49;;;;;;;14.52;9.50;;;;;;;11.92;100.00;99037.16;5031985;28;20475;-74
2021/09/08 03:10:14;;;;;;;16.40;9.90;;;;;;;11.77;100.00;99021.06;5032148;28;20052;-74
2021/09/08 03:12:40;;;;;;;14.50;9.57;;;;;;;11.84;100.00;99047.16;5031687;28;20033;-74
2021/09/08 03:15:06;;;;;;;14.25;8.98;;;;;;;11.70;100.00;99033.78;5032193;28;20033;-74
2021/09/08 03:17:32;;;;;;;12.70;8.93;;;;;;;11.68;100.00;99039.38;5012172;28;20034;-73
2021/09/08 03:19:57;;;;;;;13.65;9.02;;;;;;;11.67;100.00;99034.19;5012082;28;20029;-74
2021/09/08 03:22:22;;;;;;;15.57;9.48;;;;;;;11.68;100.00;99030.44;5011958;28;20033;-74
2021/09/08 03:24:48;;;;;;;16.52;10.07;;;;;;;11.66;100.00;99030.66;5004063;28;20108;-73
2021/09/08 03:27:13;;;;;;;17.20;10.30;;;;;;;11.68;100.00;99035.84;5031436;28;20135;-74
2021/09/08 03:29:39;;;;;;;17.30;10.20;;;;;;;11.67;100.00;99034.19;5034727;28;20033;-73
2021/09/08 03:32:04;;;;;;;14.27;9.73;;;;;;;11.54;100.00;99014.13;5035683;28;20025;-73
2021/09/08 03:34:29;;;;;;;18.30;10.70;;;;;;;11.52;100.00;99013.50;5017535;28;20021;-73
2021/09/08 03:36:55;;;;;;;14.82;10.10;;;;;;;11.57;100.00;99026.44;5035529;28;20441;-73
2021/09/08 03:39:20;;;;;;;14.73;10.00;;;;;;;11.47;100.00;99013.28;5035045;28;20585;-74
2021/09/08 03:41:45;;;;;;;14.05;8.93;;;;;;;11.55;100.00;99025.81;5035110;28;20112;-73
2021/09/08 03:44:10;;;;;;;12.00;8.52;;;;;;;11.41;100.00;99014.94;5035088;28;22355;-74
2021/09/08 03:46:36;;;;;;;12.55;8.23;;;;;;;11.50;100.00;99029.16;5035438;28;20534;-74
2021/09/08 03:49:01;;;;;;;13.55;9.18;;;;;;;11.37;100.00;99010.97;5035417;28;20064;-74
2021/09/08 03:51:26;;;;;;;13.35;8.45;;;;;;;11.50;100.00;99023.72;5035239;28;20025;-74
2021/09/08 03:53:52;;;;;;;11.65;8.25;;;;;;;11.45;99.57;99025.34;5017401;28;20024;-74
2021/09/08 03:56:17;;;;;;;10.95;7.72;;;;;;;11.35;99.05;98995.97;5035051;28;20033;-74
2021/09/08 03:58:42;;;;;;;12.07;8.15;;;;;;;11.33;99.25;98995.31;5035323;28;20498;-74
2021/09/08 04:01:09;;;;;;;13.65;8.75;;;;;;;11.36;98.77;99012.00;5017232;28;20033;-74
2021/09/08 04:03:34;;;;;;;12.27;8.13;;;;;;;11.30;98.40;99012.81;5034439;28;20029;-74
2021/09/08 04:05:59;;;;;;;13.57;8.23;;;;;;;11.29;99.15;98999.47;5017216;28;20022;-74
2021/09/08 04:08:25;;;;;;;14.45;7.55;;;;;;;11.24;99.05;99000.09;5034999;28;20025;-74
2021/09/08 04:10:50;;;;;;;13.93;8.23;;;;;;;11.19;99.28;98989.03;5034834;28;20495;-74
2021/09/08 04:13:15;;;;;;;13.93;8.32;;;;;;;11.36;98.94;99020.13;5034921;28;20033;-72
2021/09/08 04:15:40;;;;;;;12.13;8.45;;;;;;;11.20;98.74;98996.09;5034823;28;20096;-72
2021/09/08 04:18:06;;;;;;;11.07;8.65;;;;;;;11.28;98.31;98993.22;5034950;28;20029;-72
2021/09/08 04:20:31;;;;;;;14.75;8.55;;;;;;;11.24;98.14;98989.25;5021125;28;20020;-72
2021/09/08 04:22:56;;;;;;;14.70;9.63;;;;;;;11.13;97.99;98979.84;5034691;28;20040;-72
2021/09/08 04:25:22;;;;;;;12.95;8.82;;;;;;;11.31;98.31;99002.81;5035023;28;20026;-72
2021/09/08 04:27:47;;;;;;;15.68;9.77;;;;;;;11.15;98.38;98993.16;5034545;28;20027;-72
2021/09/08 04:30:13;;;;;;;11.85;8.63;;;;;;;11.16;99.21;98998.41;5034526;28;20068;-72
2021/09/08 04:32:38;;;;;;;16.98;8.30;;;;;;;11.23;98.84;99006.53;5034329;28;20505;-72
2021/09/08 04:35:04;;;;;;;12.32;9.30;;;;;;;11.31;99.72;99002.81;5034516;28;20021;-72
2021/09/08 04:37:29;;;;;;;16.15;9.32;;;;;;;11.22;99.73;98987.78;5029211;28;20036;-72
2021/09/08 04:39:55;;;;;;;15.10;9.52;;;;;;;11.34;99.94;98992.44;5010782;28;20029;-72
2021/09/08 04:42:20;;;;;;;17.13;10.18;;;;;;;11.39;99.99;99005.34;5034640;28;20116;-72
2021/09/08 04:44:46;;;;;;;15.82;9.48;;;;;;;11.39;100.00;98999.91;5034105;28;20052;-72
2021/09/08 04:47:11;;;;;;;22.60;10.38;;;;;;;11.09;99.81;98967.75;5034370;28;20029;-72
2021/09/08 04:49:36;;;;;;;17.25;10.05;;;;;;;11.14;100.00;98989.63;5034248;28;20104;-72
2021/09/08 04:52:02;;;;;;;18.33;10.35;;;;;;;11.14;100.00;98995.06;5016107;28;20116;-74
2021/09/08 04:54:27;;;;;;;18.52;9.45;;;;;;;11.16;99.26;98995.69;5033440;28;20456;-74
2021/09/08 04:56:52;;;;;;;16.83;9.75;;;;;;;11.21;98.88;99010.47;5034002;28;20076;-74
2021/09/08 04:59:18;;;;;;;16.85;10.02;;;;;;;11.20;98.89;99004.22;5034220;28;20022;-74
2021/09/08 05:01:43;;;;;;;15.60;10.02;;;;;;;11.10;98.62;99001.88;5033961;28;20108;-72
2021/09/08 05:04:08;;;;;;;14.75;9.82;;;;;;;11.21;98.81;99005.06;5033946;28;20025;-72
2021/09/08 05:06:33;;;;;;;18.33;9.73;;;;;;;11.15;98.60;98983.16;5034467;28;20122;-72
2021/09/08 05:08:59;;;;;;;16.25;10.65;;;;;;;11.35;99.03;99004.09;5034496;28;20033;-71
2021/09/08 05:11:24;;;;;;;18.92;10.35;;;;;;;11.37;99.36;98996.56;5028483;28;20064;-75
2021/09/08 05:13:49;;;;;;;18.90;12.18;;;;;;;11.45;100.00;98998.25;5032125;28;20475;-74
2021/09/08 05:16:15;;;;;;;16.65;12.07;;;;;;;11.53;100.00;99007.06;5027090;28;20037;-75
2021/09/08 05:18:40;;;;;;;17.17;11.10;;;;;;;11.40;99.88;98977.22;5023288;28;20017;-76
2021/09/08 05:21:05;;;;;;;16.08;11.45;;;;;;;11.61;100.00;98995.19;5031656;28;20025;-75
2021/09/08 05:23:31;;;;;;;18.27;12.10;;;;;;;11.85;99.32;98999.19;5026841;28;20056;-75
2021/09/08 05:25:56;;;;;;;17.42;11.98;;;;;;;11.80;98.76;98958.31;5031318;28;20728;-74
2021/09/08 05:28:22;;;;;;;15.63;10.45;;;;;;;12.84;95.11;98992.06;5027701;28;20032;-73
2021/09/08 05:30:47;;;;;;;13.73;10.13;;;;;;;14.14;86.64;98987.16;5025863;28;20395;-77
2021/09/08 05:33:13;;;;;;;13.50;9.35;;;;;;;15.19;79.71;98996.38;5026374;28;20029;-75
2021/09/08 05:35:38;;;;;;;15.52;9.13;;;;;;;16.03;74.94;98991.88;5033206;28;20096;-76
2021/09/08 05:38:03;;;;;;;13.75;8.73;;;;;;;16.62;72.41;98990.03;5026289;28;20038;-74
2021/09/08 05:40:29;;;;;;;14.10;8.55;;;;;;;17.02;69.19;98977.53;5025122;28;20495;-72
2021/09/08 05:42:54;;;;;;;11.75;8.52;;;;;;;17.12;69.70;98996.06;5029416;28;20098;-72
2021/09/08 05:45:20;;;;;;;12.88;8.15;;;;;;;17.30;69.36;98971.28;5046412;28;20082;-75
2021/09/08 05:47:45;;;;;;;14.88;8.30;;;;;;;17.66;66.36;98975.53;5010014;28;20048;-71
2021/09/08 05:50:11;;;;;;;14.38;8.18;;;;;;;18.49;63.28;98964.91;5032134;28;20078;-72
2021/09/08 05:52:36;;;;;;;13.70;7.30;;;;;;;19.44;60.65;98959.31;5031983;28;20033;-73
2021/09/08 05:55:03;;;;;;;11.73;7.88;;;;;;;19.98;60.05;98985.97;5032724;28;20132;-73
2021/09/08 05:57:28;;;;;;;12.13;8.10;;;;;;;20.76;55.83;98956.09;5032504;28;20112;-74
2021/09/08 05:59:53;;;;;;;13.02;7.93;;;;;;;22.05;53.13;98978.28;5031891;28;20033;-76
2021/09/08 06:02:19;;;;;;;12.00;7.63;;;;;;;21.96;52.45;98962.59;5027095;28;20755;-75
2021/09/08 06:04:46;;;;;;;12.07;8.20;;;;;;;22.21;51.73;98962.59;5021260;28;20106;-75
2021/09/08 06:07:11;;;;;;;12.00;8.18;;;;;;;22.60;51.46;98973.06;5021841;28;20025;-75
2021/09/08 06:09:36;;;;;;;13.27;7.60;;;;;;;22.77;49.63;98956.22;5035291;28;20021;-75
2021/09/08 06:12:02;;;;;;;12.93;7.53;;;;;;;23.36;49.20;98963.75;5023006;28;20030;-75
2021/09/08 06:14:27;;;;;;;12.57;7.57;;;;;;;23.27;49.65;98979.25;5000838;28;20103;-73
2021/09/08 06:16:53;;;;;;;11.10;7.50;;;;;;;23.53;47.99;98977.19;5012335;28;20500;-73
2021/09/08 06:19:18;;;;;;;14.65;8.55;;;;;;;24.33;46.37;98976.13;5024565;28;20037;-72
2021/09/08 06:21:43;;;;;;;12.77;7.80;;;;;;;24.08;46.77;98982.69;5028032;28;20028;-72
2021/09/08 06:24:10;;;;;;;10.65;7.78;;;;;;;23.60;47.33;98980.47;5022614;28;20505;-73
2021/09/08 06:26:35;;;;;;;15.05;7.45;;;;;;;23.66;46.66;98969.38;5030398;28;20025;-75
2021/09/08 06:29:01;;;;;;;10.93;7.30;;;;;;;25.22;43.43;98972.22;5027756;28;20032;-73
2021/09/08 06:31:26;;;;;;;11.00;7.55;;;;;;;25.07;44.38;98971.28;5028845;28;20029;-72
2021/09/08 06:33:51;;;;;;;9.52;7.03;;;;;;;23.74;46.61;98971.59;5024932;28;20079;-72
2021/09/08 06:36:17;;;;;;;11.40;7.30;;;;;;;24.03;47.38;98971.66;5029329;28;20386;-72
2021/09/08 06:38:42;;;;;;;15.25;10.20;;;;;;;24.15;46.49;98968.53;5026420;28;20025;-72
2021/09/08 06:41:07;;;;;;;12.30;7.53;;;;;;;24.52;46.95;98965.19;5024920;28;20033;-72
2021/09/08 06:43:33;;;;;;;11.98;7.40;;;;;;;25.13;43.63;98967.31;5007024;28;20037;-75
2021/09/08 06:45:58;;;;;;;12.10;7.32;;;;;;;26.24;41.23;98965.25;5022422;28;20129;-75
2021/09/08 06:48:24;;;;;;;10.68;7.28;;;;;;;26.22;41.84;98961.94;5032361;28;20116;-72
2021/09/08 06:50:49;;;;;;;11.55;7.35;;;;;;;26.80;40.62;98957.88;5005999;28;20490;-71
2021/09/08 06:53:14;;;;;;;13.00;7.57;;;;;;;27.19;40.21;98948.25;5023628;28;20032;-75
2021/09/08 06:55:40;;;;;;;10.43;7.43;;;;;;;28.41;38.06;98941.84;5021403;28;20136;-73
2021/09/08 06:58:05;;;;;;;9.05;6.50;;;;;;;29.68;35.40;98933.84;5007712;28;20029;-73
2021/09/08 07:00:30;;;;;;;14.18;7.03;;;;;;;30.40;34.18;98937.13;5027192;28;20048;-74
2021/09/08 07:02:56;;;;;;;15.35;7.05;;;;;;;29.44;35.31;98940.66;5023541;28;20040;-74
2021/09/08 07:05:21;;;;;;;10.15;6.75;;;;;;;29.01;37.08;98933.00;5026067;28;20018;-74
2021/09/08 07:07:47;;;;;;;9.52;6.20;;;;;;;28.74;36.98;98935.97;5025895;28;20112;-73
2021/09/08 07:10:12;;;;;;;9.93;7.15;;;;;;;30.58;33.95;98936.75;5027565;28;20033;-73
2021/09/08 07:12:38;;;;;;;9.00;6.38;;;;;;;32.45;31.94;98928.16;5010425;28;20037;-72
2021/09/08 07:15:04;;;;;;;8.30;6.40;;;;;;;33.42;30.09;98913.78;5026991;28;20083;-72
2021/09/08 07:17:29;;;;;;;10.13;6.10;;;;;;;33.25;30.63;98926.91;5024842;28;20033;-74
2021/09/08 07:19:55;;;;;;;7.95;6.20;;;;;;;32.80;30.60;98921.34;5020117;28;20036;-74
2021/09/08 07:22:20;;;;;;;8.90;5.93;;;;;;;31.94;32.88;98918.28;5025958;28;20062;-76
2021/09/08 07:24:45;;;;;;;8.38;6.22;;;;;;;31.71;33.18;98909.41;5027136;28;20025;-73
2021/09/08 07:27:10;;;;;;;6.15;5.25;;;;;;;32.82;32.34;98919.84;5022986;28;20022;-74
2021/09/08 07:29:36;;;;;;;9.25;6.25;;;;;;;33.47;30.75;98916.34;5018470;28;20029;-73
2021/09/08 07:32:02;;;;;;;7.63;6.03;;;;;;;33.90;29.44;98912.03;5028349;28;20106;-73
2021/09/08 07:34:28;;;;;;;8.52;5.75;;;;;;;33.73;30.10;98916.78;5027400;28;20025;-73
2021/09/08 07:36:53;;;;;;;10.35;6.00;;;;;;;33.54;31.00;98916.63;5023036;28;20037;-76
2021/09/08 07:39:19;;;;;;;8.48;5.60;;;;;;;34.75;29.84;98918.47;5022384;28;20087;-75
2021/09/08 07:41:44;;;;;;;8.65;6.03;;;;;;;33.79;30.28;98912.53;5030116;28;20465;-77
2021/09/08 07:44:10;;;;;;;8.02;6.35;;;;;;;34.29;29.71;98918.00;5014549;28;20026;-77
2021/09/08 07:46:35;;;;;;;8.52;5.50;;;;;;;34.99;28.97;98890.16;5026754;28;20021;-80
2021/09/08 07:49:01;;;;;;;8.50;5.65;;;;;;;33.96;29.10;98905.03;5015619;28;20069;-75
2021/09/08 07:51:26;;;;;;;9.52;5.88;;;;;;;34.09;29.07;98903.00;5012554;28;20417;-75
2021/09/08 07:53:51;;;;;;;9.10;6.10;;;;;;;33.94;29.04;98910.16;5027317;28;20026;-72
2021/09/08 07:56:17;;;;;;;8.60;5.45;;;;;;;34.39;28.70;98904.25;5009729;28;20491;-75
2021/09/08 07:58:42;;;;;;;10.35;5.65;;;;;;;34.60;29.02;98892.78;5031391;28;20116;-75
2021/09/08 08:01:07;;;;;;;9.18;6.20;;;;;;;34.19;29.04;98906.13;5012816;28;20068;-76
2021/09/08 08:03:33;;;;;;;6.90;5.15;;;;;;;35.97;26.59;98900.47;5029503;28;20021;-76
2021/09/08 08:05:58;;;;;;;10.25;5.32;;;;;;;36.57;25.12;98902.03;5025780;28;20026;-76
2021/09/08 08:08:23;;;;;;;8.23;5.47;;;;;;;37.42;25.01;98882.09;5031262;28;20025;-76
2021/09/08 08:10:49;;;;;;;8.48;6.22;;;;;;;37.07;24.06;98900.09;5031235;28;20072;-76
2021/09/08 08:13:14;;;;;;;8.13;5.78;;;;;;;37.15;24.07;98896.19;5031655;28;20026;-76
2021/09/08 08:15:40;;;;;;;7.20;5.20;;;;;;;37.15;23.94;98898.19;5035828;28;20017;-76
2021/09/08 08:18:05;;;;;;;6.93;5.38;;;;;;;36.02;24.79;98901.31;5030093;28;20101;-76
2021/09/08 08:20:31;;;;;;;7.40;5.00;;;;;;;36.49;24.84;98897.44;5017109;28;20103;-75
2021/09/08 08:22:56;;;;;;;7.95;5.53;;;;;;;36.11;25.19;98890.69;5034433;28;20132;-76
2021/09/08 08:25:29;;;;;;;7.45;4.78;;;;;;;34.96;25.13;98890.88;5037384;28;20147;-71
2021/09/08 08:27:58;;;;;;;6.40;5.10;;;;;;;36.03;24.41;98883.25;5016952;28;20044;-74
2021/09/08 08:30:24;;;;;;;6.70;4.88;;;;;;;35.29;24.63;98889.66;5034225;28;20036;-72
2021/09/08 08:32:50;;;;;;;7.03;5.35;;;;;;;36.28;23.85;98893.03;5036608;28;20418;-72
2021/09/08 08:35:17;;;;;;;9.30;5.03;;;;;;;34.80;24.82;98888.09;5034585;28;20483;-73
2021/09/08 08:37:42;;;;;;;7.50;4.72;;;;;;;34.95;25.24;98889.22;5017150;28;20087;-74
2021/09/08 08:40:10;;;;;;;6.32;4.75;;;;;;;35.25;26.37;98891.59;5040068;28;20437;-73
2021/09/08 08:42:36;;;;;;;9.23;5.03;;;;;;;35.11;25.44;98887.28;5046052;28;20462;-73
2021/09/08 08:45:03;;;;;;;6.97;5.38;;;;;;;36.29;23.71;98877.75;5034365;28;20100;-73
2021/09/08 08:47:30;;;;;;;6.60;5.50;;;;;;;34.69;25.22;98867.34;5034703;28;20240;-72
2021/09/08 08:49:55;;;;;;;6.70;5.65;;;;;;;35.35;25.30;98888.22;5038931;28;20091;-73
2021/09/08 08:52:21;;;;;;;6.57;5.03;;;;;;;34.40;26.95;98871.34;5054715;28;20020;-73
2021/09/08 08:54:47;;;;;;;5.85;4.78;;;;;;;35.60;24.88;98885.16;5020892;28;20063;-73
2021/09/08 08:57:14;;;;;;;6.07;5.05;;;;;;;35.54;25.33;98859.28;5034677;28;20491;-73
2021/09/08 08:59:41;;;;;;;8.02;5.13;;;;;;;35.93;24.74;98874.22;5033027;28;20519;-73
2021/09/08 09:02:44;;;;;;;9.32;5.70;;;;;;;35.34;25.45;98875.31;5033699;28;20108;-73
2021/09/08 09:05:09;;;;;;;7.93;4.93;;;;;;;34.77;25.43;98874.75;4991494;28;20140;-73
2021/09/08 09:07:43;;;;;;;6.68;4.60;;;;;;;35.35;25.13;98862.91;5015184;28;20093;-72
2021/09/08 09:10:14;;;;;;;8.75;5.45;;;;;;;35.26;24.80;98862.28;5032448;28;20395;-72
2021/09/08 09:12:43;;;;;;;6.25;5.00;;;;;;;36.26;23.93;98855.94;4996962;28;20033;-72
2021/09/08 09:15:10;;;;;;;8.18;4.63;;;;;;;36.45;23.64;98859.94;5038305;28;20509;-72
2021/09/08 09:17:37;;;;;;;5.88;4.55;;;;;;;35.19;24.80;98859.28;5030122;28;20499;-73
2021/09/08 09:20:08;;;;;;;7.15;5.28;;;;;;;35.81;24.58;98846.19;5018111;28;20394;-73
2021/09/08 09:22:56;;;;;;;8.20;5.20;;;;;;;35.46;24.92;98849.88;5053592;28;20025;-72
2021/09/08 09:25:25;;;;;;;6.78;5.18;;;;;;;36.78;23.57;98850.84;5047427;28;20025;-73
2021/09/08 09:27:59;;;;;;;5.65;4.78;;;;;;;36.34;24.14;98838.00;5018516;28;20029;-72
2021/09/08 09:30:30;;;;;;;6.25;4.82;;;;;;;35.92;23.95;98846.41;5038960;28;20060;-74
2021/09/08 09:32:58;;;;;;;6.43;4.68;;;;;;;35.54;25.19;98846.03;5028914;28;20017;-71
2021/09/08 09:35:26;;;;;;;6.25;4.90;;;;;;;35.24;25.67;98844.94;5042116;28;20104;-72
2021/09/08 09:37:52;;;;;;;6.22;5.03;;;;;;;36.35;24.44;98841.63;5016183;28;20471;-73
2021/09/08 09:40:24;;;;;;;8.50;5.00;;;;;;;35.73;25.22;98839.63;5030883;28;20499;-72
2021/09/08 09:42:50;;;;;;;6.38;4.65;;;;;;;35.38;25.45;98834.03;5016766;28;20040;-73
2021/09/08 09:45:15;;;;;;;6.70;5.07;;;;;;;35.71;25.33;98835.53;5032571;28;20025;-73
2021/09/08 09:47:44;;;;;;;5.70;4.80;;;;;;;34.53;27.31;98830.75;5016077;28;20112;-72
2021/09/08 09:50:14;;;;;;;5.57;4.60;;;;;;;36.01;25.34;98829.31;5033857;28;20029;-73
2021/09/08 09:52:40;;;;;;;6.78;5.18;;;;;;;34.59;26.33;98820.91;5048393;28;20037;-73
2021/09/08 09:55:07;;;;;;;6.90;5.20;;;;;;;35.55;25.85;98813.91;5053786;28;20025;-73
2021/09/08 09:57:32;;;;;;;7.63;5.00;;;;;;;35.41;25.79;98781.84;5052020;28;20028;-73
2021/09/08 09:59:59;;;;;;;6.60;5.22;;;;;;;34.68;26.56;98809.47;5033435;28;20021;-73
2021/09/08 10:02:26;;;;;;;12.18;10.30;;;;;;;36.43;24.72;98809.56;5034596;28;20391;-73
2021/09/08 10:04:51;;;;;;;6.28;5.03;;;;;;;35.91;24.28;98806.19;5034794;28;20080;-73
2021/09/08 10:07:19;;;;;;;6.35;5.15;;;;;;;35.14;25.80;98792.13;5033219;28;20061;-73
2021/09/08 10:09:51;;;;;;;7.05;4.53;;;;;;;35.01;26.48;98797.00;5033373;28;20025;-72
2021/09/08 10:12:20;;;;;;;10.90;4.95;;;;;;;35.30;26.60;98795.69;5030768;28;20114;-72
2021/09/08 10:14:47;;;;;;;9.93;4.90;;;;;;;36.44;25.22;98791.47;5044515;28;20029;-72
2021/09/08 10:17:17;;;;;;;7.10;4.78;;;;;;;35.85;26.49;98790.78;5034479;28;20031;-72
2021/09/08 10:19:43;;;;;;;6.97;4.90;;;;;;;35.68;26.33;98785.63;5039224;28;20064;-71
2021/09/08 10:22:11;;;;;;;7.75;4.72;;;;;;;36.92;25.29;98774.13;5033831;28;20052;-72
2021/09/08 10:24:45;;;;;;;7.00;5.35;;;;;;;37.24;25.14;98774.59;5034489;28;20506;-72
2021/09/08 10:27:40;;;;;;;7.30;4.80;;;;;;;37.90;23.87;98769.38;5033613;28;20071;-71
2021/09/08 10:30:09;;;;;;;6.93;4.22;;;;;;;38.36;23.65;98760.56;4999134;28;20052;-71
2021/09/08 10:32:35;;;;;;;5.40;4.63;;;;;;;39.40;22.28;98767.75;5030001;28;20399;-72
2021/09/08 10:35:10;;;;;;;7.65;4.63;;;;;;;37.79;24.20;98754.31;5013942;28;20025;-71
2021/09/08 10:37:35;;;;;;;5.75;4.68;;;;;;;38.26;23.37;98755.63;5030336;28;20029;-73
2021/09/08 10:40:01;;;;;;;13.40;4.50;;;;;;;37.39;24.59;98747.38;5039216;28;20112;-73
2021/09/08 10:42:49;;;;;;;7.28;5.20;;;;;;;37.01;24.25;98749.28;5034433;28;20112;-72
2021/09/08 10:45:18;;;;;;;7.30;4.85;;;;;;;36.77;24.51;98751.34;5035767;28;20028;-72
2021/09/08 10:47:44;;;;;;;5.70;4.32;;;;;;;36.60;25.61;98730.19;5032206;28;21595;-73
2021/09/08 10:50:10;;;;;;;5.95;4.78;;;;;;;35.76;26.39;98728.28;5030010;28;20100;-71
2021/09/08 10:52:36;;;;;;;7.13;4.40;;;;;;;37.08;24.01;98735.31;5030332;28;20104;-73
2021/09/08 10:55:01;;;;;;;6.43;4.65;;;;;;;37.25;25.09;98726.25;5032324;28;20030;-72
2021/09/08 10:57:53;;;;;;;4.68;3.95;;;;;;;37.72;23.85;98726.81;5015162;28;20041;-73
2021/09/08 11:00:27;;;;;;;5.00;3.97;;;;;;;38.52;22.28;98713.06;5029636;28;20037;-73
2021/09/08 11:02:53;;;;;;;5.82;4.40;;;;;;;38.96;21.79;98714.97;5033266;28;20387;-73
2021/09/08 11:05:18;;;;;;;5.28;4.72;;;;;;;37.68;24.24;98718.31;5044351;28;20100;-73
2021/09/08 11:07:46;;;;;;;5.28;3.97;;;;;;;38.78;22.26;98714.84;5052502;28;20300;-72
2021/09/08 11:10:13;;;;;;;4.83;4.10;;;;;;;38.82;22.32;98714.84;5021951;28;20072;-73
2021/09/08 11:12:53;;;;;;;5.78;4.53;;;;;;;37.37;22.34;98701.81;5012293;28;20025;-73
2021/09/08 11:15:29;;;;;;;5.57;4.20;;;;;;;37.89;22.42;98705.63;5041497;28;20025;-72
2021/09/08 11:17:55;;;;;;;5.53;4.47;;;;;;;37.20;22.91;98698.38;5030633;28;20021;-74
2021/09/08 11:20:20;;;;;;;5.43;4.40;;;;;;;36.47;24.93;98703.34;5034944;28;20438;-72
2021/09/08 11:23:18;;;;;;;7.93;4.25;;;;;;;37.21;24.26;98702.84;5049775;28;20379;-73